Time;durP1;ratioP1;P1;durP2;ratioP2;P2;SDS_P1;SDS_P2;PMS_P1;PMS_P2;Temp;Humidity;BMP_temperature;BMP_pressure;BME280_temperature;BME280_humidity;BME280_pressure;Samples;Min_cycle;Max_cycle;Signal;HPM_P1;HPM_P2
2022/09/14 00:01:33;;;;;;;1.43;1.33;;;22.80;60.30;;;;;;4917566;29;20782;-54
2022/09/14 00:04:06;;;;;;;2.13;1.60;;;22.80;61.40;;;;;;4927376;29;21018;-54
2022/09/14 00:06:35;;;;;;;2.20;1.30;;;22.80;61.80;;;;;;4923879;29;20444;-54
2022/09/14 00:09:06;;;;;;;1.20;1.10;;;22.80;61.20;;;;;;4922654;29;20471;-54
2022/09/14 00:11:36;;;;;;;2.30;1.37;;;22.80;60.70;;;;;;4920568;29;20798;-54
2022/09/14 00:14:05;;;;;;;2.67;1.40;;;22.80;60.40;;;;;;4928763;29;20464;-54
2022/09/14 00:16:37;;;;;;;1.23;1.13;;;22.80;60.70;;;;;;4933506;29;20537;-54
2022/09/14 00:19:15;;;;;;;1.40;1.30;;;22.80;60.50;;;;;;4933727;29;20472;-54
2022/09/14 00:21:43;;;;;;;2.73;1.63;;;22.80;60.20;;;;;;4914283;29;21297;-54
2022/09/14 00:24:12;;;;;;;3.73;1.83;;;22.80;61.50;;;;;;4934763;29;20484;-54
2022/09/14 00:26:40;;;;;;;1.53;1.23;;;22.80;61.70;;;;;;4912247;29;20461;-54
2022/09/14 00:29:10;;;;;;;1.73;1.40;;;22.70;61.00;;;;;;4917163;29;20507;-55
2022/09/14 00:31:40;;;;;;;1.53;1.20;;;22.70;60.50;;;;;;4902722;29;20859;-54
2022/09/14 00:34:15;;;;;;;1.53;1.37;;;22.70;60.20;;;;;;4915957;29;20535;-54
2022/09/14 00:36:46;;;;;;;1.20;1.03;;;22.70;60.30;;;;;;4928775;29;20503;-54
2022/09/14 00:39:16;;;;;;;1.73;1.50;;;22.70;60.10;;;;;;4919341;29;20523;-54
2022/09/14 00:41:46;;;;;;;2.03;1.73;;;22.70;61.00;;;;;;4911362;29;20967;-54
2022/09/14 00:44:53;;;;;;;1.60;1.50;;;22.70;61.00;;;;;;4932779;29;21003;-54
2022/09/14 00:47:22;;;;;;;1.23;1.13;;;22.70;60.70;;;;;;4940841;29;20448;-53
2022/09/14 00:49:52;;;;;;;1.37;0.80;;;22.70;60.60;;;;;;4935108;29;20464;-55
2022/09/14 00:52:24;;;;;;;1.83;1.27;;;22.70;60.30;;;;;;4916564;29;20541;-55
2022/09/14 00:54:56;;;;;;;2.83;2.10;;;22.70;60.10;;;;;;4911956;29;20523;-55
2022/09/14 00:57:27;;;;;;;1.67;1.57;;;22.70;60.50;;;;;;4929836;29;20662;-55
2022/09/14 00:59:56;;;;;;;1.53;1.30;;;22.70;61.10;;;;;;4919246;29;20468;-55
2022/09/14 01:02:27;;;;;;;1.50;1.00;;;22.70;61.00;;;;;;4912047;29;20444;-55
2022/09/14 01:04:57;;;;;;;1.30;1.10;;;22.70;60.50;;;;;;4921224;29;20567;-55
2022/09/14 01:07:55;;;;;;;1.60;1.30;;;22.70;60.10;;;;;;4940311;29;20512;-55
2022/09/14 01:10:34;;;;;;;2.80;1.40;;;22.70;60.10;;;;;;4912146;28;20472;-55
2022/09/14 01:13:11;;;;;;;1.40;1.30;;;22.70;60.50;;;;;;4912913;29;20442;-54
2022/09/14 01:15:48;;;;;;;1.93;1.40;;;22.70;60.90;;;;;;4924582;29;20491;-55
2022/09/14 01:18:24;;;;;;;3.00;1.57;;;22.70;60.90;;;;;;4916414;29;20455;-54
2022/09/14 01:20:58;;;;;;;1.60;1.50;;;22.70;60.60;;;;;;4913783;29;20483;-55
2022/09/14 01:23:33;;;;;;;2.10;1.60;;;22.70;60.20;;;;;;4916802;29;21137;-53
2022/09/14 01:26:36;;;;;;;2.43;1.30;;;22.70;60.20;;;;;;4914117;29;20480;-54
2022/09/14 01:29:12;;;;;;;1.93;1.70;;;22.70;60.10;;;;;;4925672;29;20746;-55
2022/09/14 01:31:49;;;;;;;1.47;1.37;;;22.70;61.40;;;;;;4929568;29;20472;-55
2022/09/14 01:34:25;;;;;;;1.47;1.10;;;22.70;60.80;;;;;;4933922;29;20531;-54
2022/09/14 01:37:12;;;;;;;1.70;1.57;;;22.70;60.50;;;;;;4929865;29;20451;-55
2022/09/14 01:39:45;;;;;;;1.27;1.17;;;22.70;60.40;;;;;;4916516;29;20468;-55
2022/09/14 01:42:14;;;;;;;2.00;1.47;;;22.70;60.50;;;;;;4925075;29;20456;-55
2022/09/14 01:44:50;;;;;;;1.40;1.27;;;22.70;60.70;;;;;;4934310;29;20829;-55
2022/09/14 01:47:25;;;;;;;1.40;1.30;;;22.70;60.50;;;;;;4932398;29;20436;-55
2022/09/14 01:49:59;;;;;;;1.20;1.10;;;22.70;60.50;;;;;;4918009;29;20472;-55
2022/09/14 01:52:33;;;;;;;2.60;1.27;;;22.70;60.30;;;;;;4931541;29;20983;-55
2022/09/14 01:55:09;;;;;;;1.53;1.40;;;22.70;60.40;;;;;;4918921;29;20472;-55
2022/09/14 01:57:42;;;;;;;1.10;1.00;;;22.70;60.40;;;;;;4915269;29;20451;-55
2022/09/14 02:00:16;;;;;;;1.33;1.23;;;22.70;60.20;;;;;;4917993;29;20500;-55
2022/09/14 02:02:48;;;;;;;1.90;1.17;;;22.70;60.40;;;;;;4936910;29;20517;-54
2022/09/14 02:05:22;;;;;;;2.20;1.33;;;22.70;60.40;;;;;;4915673;29;20469;-55
2022/09/14 02:07:51;;;;;;;0.87;0.87;;;22.70;60.30;;;;;;4942578;29;20444;-55
2022/09/14 02:10:19;;;;;;;1.43;1.33;;;22.70;60.40;;;;;;4918749;29;20496;-54
2022/09/14 02:12:49;;;;;;;1.80;1.70;;;22.70;61.00;;;;;;4927043;29;20835;-54
2022/09/14 02:15:19;;;;;;;1.73;1.30;;;22.70;60.70;;;;;;4914703;29;20523;-55
2022/09/14 02:17:48;;;;;;;1.40;1.30;;;22.60;60.30;;;;;;4921207;29;20452;-54
2022/09/14 02:20:22;;;;;;;2.13;1.70;;;22.60;60.30;;;;;;4909471;29;20480;-55
2022/09/14 02:22:51;;;;;;;1.63;1.43;;;22.70;61.10;;;;;;4918085;29;20876;-55
2022/09/14 02:25:20;;;;;;;1.53;1.43;;;22.60;61.10;;;;;;4930247;29;20563;-54
2022/09/14 02:27:49;;;;;;;1.73;1.63;;;22.70;60.90;;;;;;4928571;29;20496;-55
2022/09/14 02:30:19;;;;;;;2.17;1.83;;;22.60;60.50;;;;;;4930998;29;20991;-55
2022/09/14 02:32:58;;;;;;;2.10;1.27;;;22.60;60.50;;;;;;4918098;29;20476;-53
2022/09/14 02:35:31;;;;;;;1.70;1.60;;;22.60;60.40;;;;;;4934524;28;20480;-55
2022/09/14 02:38:07;;;;;;;1.37;1.27;;;22.60;61.00;;;;;;4919360;29;20448;-55
2022/09/14 02:40:39;;;;;;;2.10;1.50;;;22.60;61.10;;;;;;4932474;29;21014;-55
2022/09/14 02:43:23;;;;;;;1.60;1.40;;;22.60;60.70;;;;;;4934536;29;20456;-55
2022/09/14 02:45:59;;;;;;;1.30;1.20;;;22.60;60.50;;;;;;4931674;29;20483;-54
2022/09/14 02:48:37;;;;;;;1.30;1.20;;;22.60;60.50;;;;;;4943931;29;20452;-55
2022/09/14 02:51:15;;;;;;;1.43;1.30;;;22.60;60.70;;;;;;4920053;29;20484;-55
2022/09/14 02:53:47;;;;;;;1.30;1.20;;;22.60;60.40;;;;;;4931801;29;20511;-55
2022/09/14 02:56:18;;;;;;;1.33;1.23;;;22.60;60.30;;;;;;4901746;29;20468;-55
2022/09/14 02:58:47;;;;;;;1.40;1.30;;;22.60;60.20;;;;;;4920829;29;20535;-55
2022/09/14 03:01:21;;;;;;;1.33;1.23;;;22.60;60.70;;;;;;4923394;29;21039;-55
2022/09/14 03:03:49;;;;;;;1.70;1.60;;;22.60;61.00;;;;;;4918045;29;20476;-54
2022/09/14 03:06:18;;;;;;;1.77;1.60;;;22.60;60.90;;;;;;4935987;29;20448;-55
2022/09/14 03:08:46;;;;;;;2.17;1.60;;;22.60;60.80;;;;;;4919118;29;20875;-53
2022/09/14 03:11:15;;;;;;;1.53;1.43;;;22.60;61.00;;;;;;4916680;29;20484;-54
2022/09/14 03:13:44;;;;;;;1.70;1.20;;;22.60;60.80;;;;;;4940824;29;20444;-55
2022/09/14 03:16:14;;;;;;;1.20;1.10;;;22.60;60.50;;;;;;4926199;29;20552;-55
2022/09/14 03:18:44;;;;;;;2.07;1.27;;;22.60;60.50;;;;;;4916129;29;20490;-54
2022/09/14 03:21:14;;;;;;;1.60;1.50;;;22.60;60.50;;;;;;4915954;29;20484;-54
2022/09/14 03:23:45;;;;;;;1.40;1.30;;;22.60;60.30;;;;;;4933165;29;20868;-54
2022/09/14 03:26:16;;;;;;;1.47;1.30;;;22.60;60.20;;;;;;4933601;29;20492;-53
2022/09/14 03:28:45;;;;;;;1.60;1.13;;;22.60;60.20;;;;;;4931342;29;20432;-54
2022/09/14 03:31:13;;;;;;;1.03;0.93;;;22.60;60.20;;;;;;4933167;29;20991;-54
2022/09/14 03:33:42;;;;;;;2.70;1.20;;;22.60;60.10;;;;;;4934717;29;20452;-53
2022/09/14 03:36:14;;;;;;;1.83;1.47;;;22.60;60.10;;;;;;4941529;29;20548;-53
2022/09/14 03:38:44;;;;;;;2.50;1.60;;;22.60;60.70;;;;;;4919215;29;20452;-55
2022/09/14 03:41:13;;;;;;;2.40;1.10;;;22.60;60.60;;;;;;4929384;29;20489;-55
2022/09/14 03:43:43;;;;;;;1.80;1.50;;;22.60;60.40;;;;;;4917963;29;20888;-55
2022/09/14 03:46:13;;;;;;;1.90;1.70;;;22.60;60.20;;;;;;4917660;29;20809;-53
2022/09/14 03:48:42;;;;;;;2.00;1.50;;;22.60;60.80;;;;;;4919983;29;20437;-55
2022/09/14 03:51:13;;;;;;;1.60;1.23;;;22.60;60.40;;;;;;4931327;29;20491;-55
2022/09/14 03:53:43;;;;;;;1.73;1.30;;;22.60;60.30;;;;;;4926104;29;20445;-55
2022/09/14 03:56:15;;;;;;;1.63;1.30;;;22.50;60.00;;;;;;4915788;29;20524;-55
2022/09/14 03:58:44;;;;;;;1.90;1.70;;;22.60;60.10;;;;;;4918933;29;20433;-55
2022/09/14 04:01:14;;;;;;;1.77;1.67;;;22.60;60.30;;;;;;4917489;29;20874;-55
2022/09/14 04:03:44;;;;;;;2.60;1.00;;;22.50;60.20;;;;;;4917486;29;20452;-53
2022/09/14 04:06:15;;;;;;;1.87;1.50;;;22.50;60.10;;;;;;4937525;29;20468;-55
2022/09/14 04:08:45;;;;;;;1.33;1.20;;;22.60;60.40;;;;;;4919878;29;20444;-55
2022/09/14 04:11:16;;;;;;;2.10;1.17;;;22.50;60.20;;;;;;4912262;29;20481;-55
2022/09/14 04:13:45;;;;;;;1.30;1.20;;;22.50;60.20;;;;;;4925468;29;20852;-53
2022/09/14 04:16:15;;;;;;;3.37;1.57;;;22.50;60.20;;;;;;4931650;29;20523;-55
2022/09/14 04:18:44;;;;;;;1.87;1.67;;;22.50;60.40;;;;;;4921082;29;20539;-52
2022/09/14 04:21:15;;;;;;;1.20;0.90;;;22.50;61.50;;;;;;4914060;29;20465;-54
2022/09/14 04:23:44;;;;;;;2.20;1.13;;;22.50;60.30;;;;;;4919519;29;20452;-54
2022/09/14 04:26:33;;;;;;;1.63;0.90;;;22.50;60.20;;;;;;4923271;29;20476;-53
2022/09/14 04:29:01;;;;;;;1.93;1.73;;;22.50;60.20;;;;;;4917699;29;20449;-55
2022/09/14 04:31:30;;;;;;;2.17;1.40;;;22.50;60.50;;;;;;4916738;29;20477;-54
2022/09/14 04:33:59;;;;;;;2.50;1.13;;;22.50;60.50;;;;;;4921757;29;20528;-55
2022/09/14 04:36:29;;;;;;;1.10;1.00;;;22.50;60.20;;;;;;4914115;29;20464;-54
2022/09/14 04:39:00;;;;;;;1.27;1.13;;;22.50;60.10;;;;;;4917835;29;20937;-55
2022/09/14 04:41:30;;;;;;;2.93;1.03;;;22.50;60.10;;;;;;4910172;29;20449;-54
2022/09/14 04:43:59;;;;;;;2.23;1.40;;;22.50;60.20;;;;;;4916278;29;20448;-54
2022/09/14 04:46:30;;;;;;;1.33;1.00;;;22.50;60.50;;;;;;4932972;29;20449;-54
2022/09/14 04:48:59;;;;;;;1.77;1.10;;;22.50;60.20;;;;;;4937584;29;20444;-54
2022/09/14 04:51:31;;;;;;;1.30;1.17;;;22.50;60.10;;;;;;4909575;29;20477;-54
2022/09/14 04:54:01;;;;;;;1.20;0.93;;;22.50;60.10;;;;;;4918902;29;20491;-54
2022/09/14 04:56:32;;;;;;;2.53;1.23;;;22.40;60.00;;;;;;4908819;29;20460;-55
2022/09/14 04:59:04;;;;;;;1.17;1.07;;;22.50;60.00;;;;;;4917385;29;20444;-53
2022/09/14 05:01:35;;;;;;;1.50;1.40;;;22.40;59.90;;;;;;4931146;29;20444;-54
2022/09/14 05:04:05;;;;;;;1.30;1.20;;;22.50;60.10;;;;;;4914588;29;20460;-55
2022/09/14 05:06:37;;;;;;;2.53;1.30;;;22.40;60.00;;;;;;4931105;29;20805;-54
2022/09/14 05:09:07;;;;;;;1.30;1.20;;;22.40;60.00;;;;;;4917118;29;20843;-54
2022/09/14 05:11:36;;;;;;;1.47;1.30;;;22.50;60.10;;;;;;4923488;29;20479;-55
2022/09/14 05:14:05;;;;;;;1.10;1.00;;;22.40;60.00;;;;;;4917107;29;20547;-54
2022/09/14 05:16:35;;;;;;;1.00;0.90;;;22.40;59.90;;;;;;4930129;29;20448;-55
2022/09/14 05:19:08;;;;;;;1.77;1.10;;;22.40;60.00;;;;;;4931814;29;20543;-55
2022/09/14 05:21:38;;;;;;;1.20;1.10;;;22.40;59.90;;;;;;4909262;29;20598;-54
2022/09/14 05:24:11;;;;;;;0.77;0.77;;;22.40;60.00;;;;;;4915640;29;20776;-55
2022/09/14 05:26:40;;;;;;;1.30;1.20;;;22.40;60.00;;;;;;4924366;29;20453;-55
2022/09/14 05:29:12;;;;;;;2.10;1.30;;;22.40;60.00;;;;;;4924399;29;20475;-55
2022/09/14 05:31:41;;;;;;;1.63;1.13;;;22.50;60.10;;;;;;4924289;29;20461;-54
2022/09/14 05:34:10;;;;;;;2.63;1.53;;;22.40;60.20;;;;;;4911761;29;20488;-55
2022/09/14 05:36:40;;;;;;;3.20;1.70;;;22.40;60.20;;;;;;4917363;29;20473;-54
2022/09/14 05:39:09;;;;;;;2.17;1.50;;;22.50;60.20;;;;;;4932285;29;20448;-54
2022/09/14 05:41:38;;;;;;;3.00;1.40;;;22.40;60.10;;;;;;4909091;29;20460;-55
2022/09/14 05:44:07;;;;;;;2.83;1.60;;;22.40;60.10;;;;;;4937995;29;21004;-54
2022/09/14 05:46:35;;;;;;;1.93;1.67;;;22.40;61.70;;;;;;4916024;29;20462;-55
2022/09/14 05:49:04;;;;;;;1.97;1.40;;;22.40;60.50;;;;;;4932049;29;20504;-55
2022/09/14 05:51:32;;;;;;;2.73;1.60;;;22.40;60.40;;;;;;4916127;29;20456;-55
2022/09/14 05:54:08;;;;;;;1.70;1.30;;;22.40;60.50;;;;;;4921876;29;20472;-53
2022/09/14 05:56:36;;;;;;;1.43;1.30;;;22.40;60.50;;;;;;4927389;29;20963;-55
2022/09/14 05:59:04;;;;;;;3.20;1.10;;;22.40;61.50;;;;;;4920888;29;20433;-54
2022/09/14 06:01:33;;;;;;;1.30;1.20;;;22.40;60.20;;;;;;4908722;29;20453;-53
2022/09/14 06:04:02;;;;;;;1.40;1.30;;;22.30;60.00;;;;;;4936112;29;20472;-53
2022/09/14 06:06:32;;;;;;;1.20;1.03;;;22.40;60.00;;;;;;4925294;29;20495;-53
2022/09/14 06:09:02;;;;;;;1.63;1.47;;;22.40;60.00;;;;;;4933441;29;20523;-54
2022/09/14 06:11:32;;;;;;;2.40;2.07;;;22.40;60.10;;;;;;4926092;29;20519;-53
2022/09/14 06:14:01;;;;;;;1.70;1.57;;;22.30;60.10;;;;;;4919587;29;20472;-53
2022/09/14 06:16:29;;;;;;;2.13;1.93;;;22.30;60.10;;;;;;4931704;29;21044;-55
2022/09/14 06:18:59;;;;;;;1.30;1.20;;;22.30;60.40;;;;;;4913900;29;20964;-52
2022/09/14 06:21:30;;;;;;;1.57;1.30;;;22.40;60.30;;;;;;4924271;29;20511;-53
2022/09/14 06:23:59;;;;;;;2.23;1.40;;;22.30;60.10;;;;;;4919648;29;20480;-55
2022/09/14 06:26:29;;;;;;;1.97;1.40;;;22.40;60.10;;;;;;4909113;29;20836;-54
2022/09/14 06:28:58;;;;;;;1.43;1.33;;;22.30;60.20;;;;;;4914094;29;20444;-54
2022/09/14 06:31:27;;;;;;;1.47;1.33;;;22.30;60.20;;;;;;4931915;29;20445;-54
2022/09/14 06:33:55;;;;;;;2.50;1.10;;;22.30;60.20;;;;;;4910918;29;20481;-55
2022/09/14 06:36:26;;;;;;;1.70;1.33;;;22.30;60.20;;;;;;4931050;29;20817;-54
2022/09/14 06:38:55;;;;;;;1.20;1.10;;;22.30;60.00;;;;;;4919733;29;20445;-54
2022/09/14 06:41:27;;;;;;;1.57;1.03;;;22.30;60.00;;;;;;4930119;29;20456;-55
2022/09/14 06:44:00;;;;;;;1.30;1.20;;;22.30;60.00;;;;;;4928756;29;20476;-52
2022/09/14 06:46:30;;;;;;;2.57;1.40;;;22.30;60.00;;;;;;4923904;29;20813;-53
2022/09/14 06:49:01;;;;;;;1.67;1.57;;;22.30;60.40;;;;;;4933793;29;20444;-55
2022/09/14 06:51:31;;;;;;;1.90;1.80;;;22.30;60.80;;;;;;4902583;29;20456;-55
2022/09/14 06:54:00;;;;;;;2.20;1.70;;;22.30;60.70;;;;;;4929214;29;20472;-55
2022/09/14 06:56:31;;;;;;;1.50;1.40;;;22.30;60.60;;;;;;4915905;29;20448;-55
2022/09/14 06:59:02;;;;;;;3.60;1.90;;;22.30;60.50;;;;;;4915021;29;20539;-55
2022/09/14 07:01:30;;;;;;;1.60;1.50;;;22.30;60.80;;;;;;4923993;29;20536;-55
2022/09/14 07:04:00;;;;;;;1.63;1.40;;;22.30;60.60;;;;;;4916632;29;20445;-53
2022/09/14 07:06:31;;;;;;;1.83;1.50;;;22.30;60.40;;;;;;4923680;29;20444;-54
2022/09/14 07:09:03;;;;;;;1.40;1.30;;;22.30;60.30;;;;;;4916567;29;20800;-55
2022/09/14 07:11:34;;;;;;;2.30;1.57;;;22.30;60.30;;;;;;4910859;29;20440;-54
2022/09/14 07:14:04;;;;;;;1.20;1.10;;;22.30;60.30;;;;;;4919881;29;22049;-54
2022/09/14 07:16:34;;;;;;;2.20;1.03;;;22.30;60.20;;;;;;4933938;29;20505;-55
2022/09/14 07:19:07;;;;;;;2.10;1.47;;;22.20;60.00;;;;;;4923703;29;20824;-54
2022/09/14 07:21:36;;;;;;;1.80;1.30;;;22.30;60.30;;;;;;4932999;29;20799;-54
2022/09/14 07:24:05;;;;;;;1.40;1.23;;;22.20;60.10;;;;;;4942929;29;20467;-54
2022/09/14 07:26:38;;;;;;;1.63;1.30;;;22.30;60.60;;;;;;4933958;29;20470;-54
2022/09/14 07:29:11;;;;;;;2.00;1.33;;;22.20;60.20;;;;;;4926462;29;20717;-55
2022/09/14 07:31:41;;;;;;;1.43;1.23;;;22.20;60.00;;;;;;4927081;29;20515;-55
2022/09/14 07:34:11;;;;;;;1.93;1.53;;;22.20;60.00;;;;;;4916153;29;20997;-54
2022/09/14 07:36:42;;;;;;;1.07;0.97;;;22.20;60.00;;;;;;4944681;29;20971;-54
2022/09/14 07:39:12;;;;;;;1.40;1.30;;;22.20;60.00;;;;;;4944333;29;20825;-55
2022/09/14 07:41:42;;;;;;;1.30;1.20;;;22.20;60.10;;;;;;4917314;29;20516;-54
2022/09/14 07:44:14;;;;;;;2.57;1.30;;;22.20;60.00;;;;;;4935459;28;20825;-55
2022/09/14 07:46:44;;;;;;;1.33;1.23;;;22.20;60.50;;;;;;4949159;29;20468;-54
2022/09/14 07:49:14;;;;;;;1.50;1.40;;;22.20;60.20;;;;;;4912753;29;20485;-54
2022/09/14 07:51:43;;;;;;;1.40;1.30;;;22.20;60.30;;;;;;4932647;29;20443;-54
2022/09/14 07:54:13;;;;;;;2.03;1.70;;;22.20;60.60;;;;;;4917268;29;20472;-53
2022/09/14 07:56:42;;;;;;;2.55;1.63;;;22.10;61.60;;;;;;4916756;29;20544;-54
2022/09/14 07:59:13;;;;;;;1.80;1.30;;;22.10;64.20;;;;;;4933459;29;20982;-54
2022/09/14 08:02:02;;;;;;;1.53;1.10;;;22.00;63.60;;;;;;4934272;29;20465;-54
2022/09/14 08:04:30;;;;;;;2.20;1.07;;;22.10;63.50;;;;;;4933143;29;20460;-53
2022/09/14 08:07:00;;;;;;;0.70;0.70;;;22.00;63.30;;;;;;4935633;29;20527;-54
2022/09/14 08:09:29;;;;;;;0.77;0.73;;;22.10;63.10;;;;;;4934632;29;20559;-54
2022/09/14 08:11:57;;;;;;;1.43;0.80;;;22.10;62.70;;;;;;4933409;29;20453;-55
2022/09/14 08:14:27;;;;;;;1.30;1.00;;;22.10;62.60;;;;;;4934524;29;20855;-54
2022/09/14 08:16:56;;;;;;;1.33;0.90;;;22.10;62.40;;;;;;4934885;29;20532;-54
2022/09/14 08:19:25;;;;;;;1.00;0.80;;;22.10;62.40;;;;;;4935177;29;20455;-54
2022/09/14 08:21:53;;;;;;;1.43;1.13;;;22.10;62.20;;;;;;4933095;29;20444;-54
2022/09/14 08:24:22;;;;;;;0.90;0.80;;;22.10;62.10;;;;;;4934938;29;20547;-54
2022/09/14 08:26:51;;;;;;;1.87;1.07;;;22.10;62.00;;;;;;4931596;29;20453;-54
2022/09/14 08:29:20;;;;;;;0.80;0.80;;;22.10;61.80;;;;;;4933878;29;20476;-55
2022/09/14 08:31:50;;;;;;;2.20;1.23;;;22.10;61.70;;;;;;4933785;29;20460;-54
2022/09/14 08:34:20;;;;;;;4.60;2.20;;;22.10;62.50;;;;;;4932015;29;20567;-53
2022/09/14 08:36:48;;;;;;;1.43;1.33;;;22.00;63.70;;;;;;4933473;29;20441;-54
2022/09/14 08:39:17;;;;;;;1.53;1.43;;;21.90;64.00;;;;;;4934436;29;20514;-54
2022/09/14 08:41:52;;;;;;;1.50;1.40;;;21.90;63.80;;;;;;4933211;29;20507;-54
2022/09/14 08:44:25;;;;;;;1.30;1.20;;;21.90;63.80;;;;;;4934109;29;20487;-54
2022/09/14 08:47:00;;;;;;;1.40;1.00;;;21.90;63.60;;;;;;4933757;29;20445;-55
2022/09/14 08:49:45;;;;;;;1.30;1.20;;;21.90;63.30;;;;;;4933740;29;20573;-54
2022/09/14 08:52:19;;;;;;;1.27;1.17;;;22.00;63.20;;;;;;4932791;29;20472;-54
2022/09/14 08:54:53;;;;;;;1.00;0.90;;;22.00;63.00;;;;;;4937554;28;20471;-55
2022/09/14 08:57:29;;;;;;;1.50;1.00;;;22.00;62.80;;;;;;4926302;29;20520;-55
2022/09/14 09:00:07;;;;;;;0.90;0.80;;;22.00;62.70;;;;;;4934346;28;20468;-53
2022/09/14 09:02:50;;;;;;;1.40;1.00;;;22.00;63.10;;;;;;4927126;29;20443;-55
2022/09/14 09:05:28;;;;;;;1.03;0.93;;;22.00;62.50;;;;;;4928966;29;21008;-52
2022/09/14 09:08:02;;;;;;;1.10;1.00;;;22.00;62.40;;;;;;4933778;29;20446;-55
2022/09/14 09:10:33;;;;;;;1.23;0.97;;;22.00;62.20;;;;;;4931532;29;20857;-53
2022/09/14 09:13:05;;;;;;;1.17;0.90;;;22.00;62.10;;;;;;4933831;29;20445;-55
2022/09/14 09:15:37;;;;;;;1.87;1.10;;;22.00;62.10;;;;;;4925923;29;20545;-55
2022/09/14 09:18:11;;;;;;;1.00;0.90;;;22.00;62.10;;;;;;4934232;29;20524;-53
2022/09/14 09:20:44;;;;;;;1.00;0.90;;;22.00;62.00;;;;;;4923138;29;20507;-54
2022/09/14 09:23:16;;;;;;;1.00;0.90;;;22.00;61.90;;;;;;4933152;29;20448;-54
2022/09/14 09:25:51;;;;;;;1.87;0.83;;;22.00;61.90;;;;;;4928782;29;20496;-55
2022/09/14 09:28:21;;;;;;;3.30;1.43;;;22.00;61.80;;;;;;4932348;29;20551;-54
2022/09/14 09:30:50;;;;;;;1.50;1.40;;;22.00;61.90;;;;;;4932735;29;20517;-55
2022/09/14 09:33:24;;;;;;;1.83;1.10;;;22.00;62.30;;;;;;4932330;29;20487;-54
2022/09/14 09:36:13;;;;;;;1.40;1.17;;;22.00;62.30;;;;;;4912625;29;20484;-55
2022/09/14 09:38:42;;;;;;;1.27;1.17;;;22.00;62.10;;;;;;4916165;29;20477;-53
2022/09/14 09:41:18;;;;;;;1.70;1.60;;;22.00;62.10;;;;;;4910560;29;20584;-52
2022/09/14 09:44:01;;;;;;;1.73;1.40;;;22.00;62.50;;;;;;4931882;29;20472;-53
2022/09/14 09:46:32;;;;;;;1.13;1.00;;;22.00;62.70;;;;;;4931051;29;21028;-55
2022/09/14 09:49:18;;;;;;;1.10;1.10;;;22.00;62.50;;;;;;4932385;29;20488;-55
2022/09/14 09:51:46;;;;;;;1.37;1.27;;;22.00;62.40;;;;;;4940352;29;20467;-54
2022/09/14 09:54:28;;;;;;;1.30;1.20;;;22.00;62.20;;;;;;4917387;29;20464;-55
2022/09/14 09:56:58;;;;;;;1.20;1.10;;;22.00;62.10;;;;;;4909411;29;20448;-55
2022/09/14 09:59:35;;;;;;;1.23;1.00;;;22.00;62.00;;;;;;4924619;29;20459;-55
2022/09/14 10:02:22;;;;;;;1.53;1.43;;;21.90;61.90;;;;;;4916759;29;20867;-52
2022/09/14 10:05:01;;;;;;;1.17;0.97;;;22.00;61.90;;;;;;4908049;29;20472;-55
2022/09/14 10:07:32;;;;;;;1.30;1.20;;;21.90;61.80;;;;;;4931681;29;20564;-52
2022/09/14 10:10:02;;;;;;;1.57;1.10;;;21.90;61.90;;;;;;4900015;29;20456;-55
2022/09/14 10:12:31;;;;;;;1.63;1.00;;;22.00;61.90;;;;;;4930826;29;20453;-55
2022/09/14 10:15:16;;;;;;;1.13;1.03;;;21.90;61.60;;;;;;4938600;28;20468;-54
2022/09/14 10:17:55;;;;;;;2.20;1.30;;;21.90;61.60;;;;;;4925710;29;20809;-54
2022/09/14 10:20:26;;;;;;;1.57;1.30;;;21.90;61.60;;;;;;4913928;29;20982;-53
2022/09/14 10:22:55;;;;;;;1.70;0.77;;;22.00;61.60;;;;;;4932093;29;20484;-53
2022/09/14 10:25:26;;;;;;;1.00;0.90;;;22.00;61.60;;;;;;4920461;28;20954;-53
2022/09/14 10:28:01;;;;;;;1.87;1.10;;;21.90;61.50;;;;;;4926749;29;20508;-53
2022/09/14 10:30:37;;;;;;;1.27;1.17;;;21.90;61.50;;;;;;4931386;28;20471;-53
2022/09/14 10:33:08;;;;;;;0.90;0.90;;;21.90;61.50;;;;;;4923271;29;20519;-54
2022/09/14 10:35:44;;;;;;;1.30;1.10;;;21.90;61.40;;;;;;4931499;29;20476;-54
2022/09/14 10:38:29;;;;;;;0.77;0.77;;;21.90;61.50;;;;;;4923982;29;20433;-54
2022/09/14 10:41:18;;;;;;;1.30;1.20;;;21.90;61.30;;;;;;4909282;29;20864;-54
2022/09/14 10:44:10;;;;;;;1.40;1.30;;;21.90;61.50;;;;;;4935493;29;20823;-52
2022/09/14 10:46:53;;;;;;;5.70;1.17;;;21.90;61.40;;;;;;4916556;29;20472;-54
2022/09/14 10:49:38;;;;;;;1.50;1.00;;;21.90;61.30;;;;;;4924214;29;20479;-54
2022/09/14 10:52:16;;;;;;;1.70;1.60;;;21.90;61.40;;;;;;4928408;29;20455;-54
2022/09/14 10:55:06;;;;;;;1.27;1.13;;;21.90;61.50;;;;;;4934302;29;20472;-54
2022/09/14 10:57:57;;;;;;;1.13;0.90;;;21.90;61.40;;;;;;4918969;29;20812;-54
2022/09/14 11:00:30;;;;;;;1.20;1.10;;;21.90;61.40;;;;;;4933800;29;20524;-55
2022/09/14 11:03:13;;;;;;;1.20;1.10;;;21.90;61.20;;;;;;4923265;29;20448;-54
2022/09/14 11:05:46;;;;;;;1.40;1.30;;;21.90;61.30;;;;;;4934378;29;20468;-55
2022/09/14 11:08:26;;;;;;;1.43;1.33;;;21.90;61.20;;;;;;4920545;29;20459;-54
2022/09/14 11:11:14;;;;;;;1.67;0.70;;;21.90;61.10;;;;;;4913468;29;20481;-55
2022/09/14 11:14:16;;;;;;;1.23;1.13;;;21.90;61.10;;;;;;4918128;29;20523;-53
2022/09/14 11:16:56;;;;;;;0.80;0.77;;;21.90;61.20;;;;;;4901708;29;20562;-54
2022/09/14 11:19:35;;;;;;;1.40;1.17;;;21.90;61.10;;;;;;4932934;29;20440;-54
2022/09/14 11:22:09;;;;;;;1.00;1.00;;;21.90;61.20;;;;;;4936552;29;20450;-55
2022/09/14 11:24:43;;;;;;;1.30;1.20;;;21.90;61.10;;;;;;4922850;29;21023;-54
2022/09/14 11:27:27;;;;;;;1.10;1.00;;;21.90;61.20;;;;;;4920171;29;20463;-54
2022/09/14 11:30:00;;;;;;;1.70;1.23;;;21.90;61.20;;;;;;4939833;29;20475;-54
2022/09/14 11:32:33;;;;;;;1.37;1.20;;;21.80;61.10;;;;;;4919032;29;20443;-55
2022/09/14 11:35:11;;;;;;;1.53;1.43;;;21.90;61.10;;;;;;4905957;29;20480;-55
2022/09/14 11:37:42;;;;;;;1.10;1.00;;;21.90;61.30;;;;;;4935712;29;20813;-55
2022/09/14 11:40:21;;;;;;;1.50;1.40;;;21.80;61.20;;;;;;4937200;29;20815;-55
2022/09/14 11:42:56;;;;;;;1.90;1.30;;;21.80;61.20;;;;;;4928894;29;20444;-53
2022/09/14 11:45:29;;;;;;;1.50;1.40;;;21.90;61.20;;;;;;4924730;29;20960;-55
2022/09/14 11:48:06;;;;;;;1.50;1.40;;;21.90;61.20;;;;;;4918695;29;20479;-54
2022/09/14 11:51:03;;;;;;;1.13;1.00;;;21.90;61.20;;;;;;4930294;28;21002;-55
2022/09/14 11:53:33;;;;;;;1.20;1.10;;;21.80;61.00;;;;;;4918186;29;20421;-55
2022/09/14 11:56:04;;;;;;;2.87;1.70;;;21.80;61.10;;;;;;4923105;29;20536;-54
2022/09/14 11:58:33;;;;;;;1.00;0.90;;;21.90;61.50;;;;;;4934490;29;20432;-54
2022/09/14 12:01:05;;;;;;;2.13;1.30;;;21.80;61.00;;;;;;4921489;29;21014;-55
2022/09/14 12:04:10;;;;;;;1.33;1.23;;;21.80;61.10;;;;;;4923562;29;20453;-55
2022/09/14 12:06:47;;;;;;;2.17;1.33;;;21.80;61.00;;;;;;4927998;29;20849;-55
2022/09/14 12:09:48;;;;;;;1.40;1.30;;;21.80;61.00;;;;;;4918211;29;20440;-55
2022/09/14 12:12:38;;;;;;;1.73;1.60;;;21.80;60.90;;;;;;4877530;29;20457;-54
2022/09/14 12:15:34;;;;;;;2.27;1.60;;;21.80;61.10;;;;;;4898156;29;20500;-55
2022/09/14 12:18:27;;;;;;;1.40;1.10;;;21.80;61.00;;;;;;4919276;29;20453;-55
2022/09/14 12:21:06;;;;;;;1.60;1.50;;;21.80;61.10;;;;;;4930952;29;20476;-55
2022/09/14 12:23:46;;;;;;;1.13;0.80;;;21.80;61.10;;;;;;4917812;29;20456;-53
2022/09/14 12:26:29;;;;;;;1.23;1.13;;;21.80;61.00;;;;;;4929667;28;20504;-54
2022/09/14 12:29:04;;;;;;;1.43;1.33;;;21.80;61.00;;;;;;4904836;29;20451;-54
2022/09/14 12:31:59;;;;;;;1.93;1.43;;;21.80;60.90;;;;;;4907777;29;20446;-55
2022/09/14 12:34:30;;;;;;;2.03;1.33;;;21.80;60.90;;;;;;4924145;29;20836;-54
2022/09/14 12:37:25;;;;;;;1.40;1.30;;;21.80;60.90;;;;;;4915297;29;21003;-54
2022/09/14 12:40:27;;;;;;;1.43;1.30;;;21.80;61.00;;;;;;4927043;28;20479;-54
2022/09/14 12:42:56;;;;;;;1.90;1.30;;;21.80;61.00;;;;;;4910922;29;20582;-55
2022/09/14 12:45:52;;;;;;;2.17;1.50;;;21.80;60.90;;;;;;4918848;29;20531;-53
2022/09/14 12:48:57;;;;;;;2.80;1.50;;;21.80;61.10;;;;;;4932774;29;20925;-54
2022/09/14 12:51:36;;;;;;;2.90;2.70;;;21.80;61.00;;;;;;4931650;29;20474;-53
2022/09/14 12:54:18;;;;;;;1.33;1.23;;;21.80;61.10;;;;;;4942099;29;20983;-54
2022/09/14 12:56:55;;;;;;;1.57;1.47;;;21.80;61.00;;;;;;4925530;29;20519;-52
2022/09/14 12:59:31;;;;;;;1.53;1.20;;;21.70;60.90;;;;;;4924189;29;20464;-55
2022/09/14 13:02:19;;;;;;;1.50;1.40;;;21.80;61.00;;;;;;4923600;29;20504;-55
2022/09/14 13:04:54;;;;;;;1.73;1.40;;;21.70;60.90;;;;;;4939500;28;20991;-52
2022/09/14 13:07:23;;;;;;;2.23;1.33;;;21.80;60.90;;;;;;4932052;29;20960;-55
2022/09/14 13:09:54;;;;;;;1.70;1.40;;;21.70;60.80;;;;;;4935334;29;20984;-53
2022/09/14 13:12:26;;;;;;;1.40;1.30;;;21.70;60.80;;;;;;4931730;29;20511;-55
2022/09/14 13:14:58;;;;;;;1.40;1.30;;;21.80;60.90;;;;;;4929602;29;20559;-53
2022/09/14 13:17:28;;;;;;;1.27;1.17;;;21.70;60.80;;;;;;4930962;29;20504;-55
2022/09/14 13:19:58;;;;;;;1.53;1.43;;;21.80;60.90;;;;;;4930230;29;20531;-53
2022/09/14 13:22:30;;;;;;;1.60;1.50;;;21.70;60.80;;;;;;4934552;29;20425;-55